Time;durP1;ratioP1;P1;durP2;ratioP2;P2;SDS_P1;SDS_P2;PMS_P1;PMS_P2;Temp;Humidity;BMP_temperature;BMP_pressure;BME280_temperature;BME280_humidity;BME280_pressure;Samples;Min_cycle;Max_cycle;Signal;HPM_P1;HPM_P2
2022/08/22 00:05:16;;;;;;;4.60;4.10;;;;;;;19.87;80.91;99446.34;213435;1279;140658;-70
2022/08/22 00:10:26;;;;;;;7.70;4.50;;;;;;;19.86;81.10;99454.53;213238;1278;141304;-68
2022/08/22 00:15:36;;;;;;;5.30;4.20;;;;;;;19.81;80.96;99455.59;214750;1278;140471;-69
2022/08/22 00:21:26;;;;;;;5.40;4.40;;;;;;;19.76;81.07;99457.38;214640;1278;141692;-69
2022/08/22 00:26:43;;;;;;;4.70;4.30;;;;;;;19.76;81.20;99456.13;215283;1277;141229;-68
2022/08/22 00:32:13;;;;;;;5.30;4.90;;;;;;;19.76;81.24;99455.75;215543;1277;140876;-70
2022/08/22 00:37:36;;;;;;;4.50;4.10;;;;;;;19.79;81.52;99461.25;215495;1277;140936;-69
2022/08/22 00:42:43;;;;;;;7.50;5.80;;;;;;;19.82;81.39;99464.23;215944;1277;140197;-70
2022/08/22 00:47:55;;;;;;;8.40;5.80;;;;;;;19.82;81.32;99465.52;215127;1277;141208;-69
2022/08/22 00:53:09;;;;;;;6.10;4.70;;;;;;;19.81;81.54;99461.98;214440;1277;141132;-70
2022/08/22 00:58:44;;;;;;;5.80;5.20;;;;;;;19.82;81.49;99465.59;214086;1277;140496;-70
2022/08/22 01:04:14;;;;;;;12.60;6.80;;;;;;;19.80;81.70;99463.95;213978;1279;141192;-70
2022/08/22 01:09:30;;;;;;;6.40;5.70;;;;;;;19.79;81.82;99470.30;213451;1278;141659;-68
2022/08/22 01:14:59;;;;;;;6.50;5.60;;;;;;;19.75;81.85;99474.86;214482;1277;141278;-69
2022/08/22 01:20:30;;;;;;;7.90;6.40;;;;;;;19.76;82.10;99478.69;213222;1278;140317;-69
2022/08/22 01:26:12;;;;;;;5.60;5.10;;;;;;;19.73;82.19;99473.76;214141;1277;142229;-69
2022/08/22 01:31:50;;;;;;;7.10;6.40;;;;;;;19.71;82.38;99474.45;213156;1278;141030;-69
2022/08/22 01:37:23;;;;;;;8.10;6.80;;;;;;;19.71;82.37;99473.21;213749;1278;140549;-69
2022/08/22 01:42:39;;;;;;;9.30;6.20;;;;;;;19.71;82.40;99476.12;213987;1278;140296;-72
2022/08/22 01:47:54;;;;;;;10.70;6.20;;;;;;;19.74;82.56;99475.64;212181;1278;1599376;-72
2022/08/22 01:53:18;;;;;;;15.00;7.30;;;;;;;19.75;82.62;99467.67;213681;1278;142687;-71
2022/08/22 01:58:26;;;;;;;7.10;6.20;;;;;;;19.73;82.62;99464.14;214172;1278;141687;-70
2022/08/22 02:03:41;;;;;;;7.80;7.10;;;;;;;19.71;82.74;99465.69;214234;1277;141700;-72
2022/08/22 02:09:24;;;;;;;11.00;8.00;;;;;;;19.71;82.84;99461.89;214553;1277;141585;-72
2022/08/22 02:14:57;;;;;;;12.80;9.20;;;;;;;19.72;82.83;99461.50;212689;1277;141933;-71
2022/08/22 02:20:24;;;;;;;14.30;10.50;;;;;;;19.72;82.89;99465.50;213262;1277;235437;-70
2022/08/22 02:25:33;;;;;;;12.40;11.20;;;;;;;19.70;83.01;99468.25;213105;1277;141907;-69
2022/08/22 02:30:58;;;;;;;12.40;10.60;;;;;;;19.70;83.12;99467.83;214882;1277;141536;-70
2022/08/22 02:36:30;;;;;;;10.50;9.50;;;;;;;19.69;83.20;99463.40;215340;1279;141574;-70
2022/08/22 02:41:56;;;;;;;13.00;9.80;;;;;;;19.68;83.12;99461.22;215501;1277;140388;-71
2022/08/22 02:47:14;;;;;;;10.30;8.30;;;;;;;19.69;83.23;99468.64;214692;1277;141978;-69
2022/08/22 02:52:30;;;;;;;11.90;8.20;;;;;;;19.70;83.35;99469.30;215354;1277;141616;-69
2022/08/22 02:57:44;;;;;;;12.80;9.30;;;;;;;19.74;83.38;99472.79;213730;1277;153141;-69
2022/08/22 03:03:01;;;;;;;10.60;7.90;;;;;;;19.78;83.34;99470.90;213794;1277;140753;-68
2022/08/22 03:08:17;;;;;;;13.00;8.20;;;;;;;19.79;83.35;99470.08;214828;1277;140995;-70
2022/08/22 03:13:48;;;;;;;8.70;7.80;;;;;;;19.78;83.34;99476.52;214091;1277;141071;-69
2022/08/22 03:19:11;;;;;;;9.00;8.10;;;;;;;19.79;83.40;99474.56;213162;1277;140415;-68
2022/08/22 03:25:03;;;;;;;11.40;8.30;;;;;;;19.81;83.58;99475.66;213964;1277;140990;-68
2022/08/22 03:30:22;;;;;;;10.60;9.40;;;;;;;19.81;83.58;99479.02;213991;1276;140686;-68
2022/08/22 03:35:53;;;;;;;8.90;8.00;;;;;;;19.84;83.68;99471.17;212934;1277;143043;-68
2022/08/22 03:41:27;;;;;;;14.40;8.30;;;;;;;19.84;83.80;99480.48;212809;1280;141553;-68
2022/08/22 03:46:41;;;;;;;10.80;9.70;;;;;;;19.88;83.83;99485.73;213358;1279;140599;-68
2022/08/22 03:52:07;;;;;;;11.80;9.90;;;;;;;19.87;83.85;99485.11;213062;1277;141178;-68
2022/08/22 03:57:27;;;;;;;14.00;12.30;;;;;;;19.87;83.88;99484.63;213030;1277;141888;-68
2022/08/22 04:02:53;;;;;;;11.20;10.20;;;;;;;19.88;83.84;99489.05;213146;1277;142382;-69
2022/08/22 04:08:43;;;;;;;12.10;11.00;;;;;;;19.89;83.89;99484.73;214629;1277;141518;-69
2022/08/22 04:14:23;;;;;;;13.00;10.50;;;;;;;19.96;83.94;99487.80;212416;1285;142670;-68
2022/08/22 04:20:03;;;;;;;11.40;10.10;;;;;;;20.00;83.96;99497.88;213824;1279;140819;-69
2022/08/22 04:25:07;;;;;;;11.50;9.90;;;;;;;20.07;83.79;99503.97;214906;1277;141603;-69
2022/08/22 04:30:33;;;;;;;10.40;9.40;;;;;;;20.09;83.67;99504.29;214713;1277;140946;-69
2022/08/22 04:36:07;;;;;;;10.40;9.60;;;;;;;20.08;83.44;99511.09;215226;1279;140998;-69
2022/08/22 04:41:30;;;;;;;10.10;9.10;;;;;;;20.13;83.41;99512.60;215796;1277;141032;-68
2022/08/22 04:47:02;;;;;;;13.50;9.00;;;;;;;20.19;83.27;99515.83;215857;1277;142170;-69
2022/08/22 04:52:34;;;;;;;10.60;8.40;;;;;;;20.27;83.07;99518.02;215413;1277;141899;-69
2022/08/22 04:57:49;;;;;;;9.80;8.90;;;;;;;20.36;82.90;99521.10;213298;1277;142200;-68
2022/08/22 05:02:56;;;;;;;8.70;6.70;;;;;;;20.34;82.52;99523.62;214467;1277;141836;-69
2022/08/22 05:08:04;;;;;;;7.80;7.00;;;;;;;20.36;82.58;99526.30;213246;1277;141480;-68
2022/08/22 05:13:18;;;;;;;8.10;7.30;;;;;;;20.39;82.56;99522.47;214034;1275;141196;-69
2022/08/22 05:18:27;;;;;;;8.40;7.70;;;;;;;20.42;82.50;99525.34;213083;1277;161927;-68
2022/08/22 05:23:42;;;;;;;9.60;6.60;;;;;;;20.46;82.35;99529.08;214067;1279;224937;-68
2022/08/22 05:28:51;;;;;;;6.80;6.30;;;;;;;20.53;82.53;99532.90;213919;1277;141149;-68
2022/08/22 05:34:04;;;;;;;7.60;6.80;;;;;;;20.59;82.31;99536.59;213269;1277;140871;-68
2022/08/22 05:39:16;;;;;;;6.70;6.00;;;;;;;20.63;82.24;99543.38;212933;1280;141019;-68
2022/08/22 05:44:25;;;;;;;7.40;6.70;;;;;;;20.72;82.15;99551.23;213064;1279;141940;-68
2022/08/22 05:49:43;;;;;;;7.40;6.80;;;;;;;20.73;81.89;99559.56;213902;1277;141808;-68
2022/08/22 05:54:56;;;;;;;7.40;6.40;;;;;;;20.75;81.84;99565.20;213088;1277;141519;-71
2022/08/22 06:00:13;;;;;;;7.40;6.70;;;;;;;20.82;81.64;99567.46;214041;1277;140938;-69
2022/08/22 06:05:29;;;;;;;8.70;6.70;;;;;;;20.89;81.48;99567.04;214461;1277;140916;-69
2022/08/22 06:10:42;;;;;;;8.60;7.80;;;;;;;20.94;81.27;99568.88;213740;1278;142143;-69
2022/08/22 06:16:08;;;;;;;;;;;;;;;21.07;80.83;99571.05;213980;1277;141761;-70
2022/08/22 06:21:28;;;;;;;8.80;7.10;;;;;;;21.12;80.71;99565.75;214186;1277;138244;-72
2022/08/22 06:26:45;;;;;;;11.70;6.50;;;;;;;21.17;80.44;99563.91;213878;1277;142167;-70
2022/08/22 06:31:52;;;;;;;8.00;6.50;;;;;;;21.21;80.22;99563.67;213618;1277;142105;-68
2022/08/22 06:37:01;;;;;;;7.50;6.30;;;;;;;21.33;80.44;99564.65;213477;1277;143633;-70
2022/08/22 06:42:11;;;;;;;12.30;6.00;;;;;;;21.42;80.02;99557.40;216025;1277;141606;-69
2022/08/22 06:47:25;;;;;;;6.90;6.20;;;;;;;21.49;79.65;99566.81;215835;1277;144462;-69
2022/08/22 06:52:33;;;;;;;8.30;6.70;;;;;;;21.49;79.36;99575.48;214065;1277;141557;-69
2022/08/22 06:58:02;;;;;;;7.50;6.60;;;;;;;21.45;79.42;99582.77;214990;1277;142307;-68
2022/08/22 07:03:19;;;;;;;8.50;7.80;;;;;;;21.51;79.15;99584.84;215149;1277;141889;-68
2022/08/22 07:08:25;;;;;;;7.20;6.60;;;;;;;21.64;78.85;99589.27;214505;1279;140839;-66
2022/08/22 07:13:29;;;;;;;9.40;7.20;;;;;;;22.00;78.95;99591.95;214270;1278;141213;-68
2022/08/22 07:18:34;;;;;;;8.20;7.50;;;;;;;22.45;78.29;99591.24;214198;1277;141207;-69
2022/08/22 07:23:45;;;;;;;9.10;6.40;;;;;;;22.68;77.69;99597.61;213106;1277;141180;-70
2022/08/22 07:29:18;;;;;;;7.30;6.60;;;;;;;22.67;77.19;99597.34;213780;1277;141648;-70
2022/08/22 07:35:01;;;;;;;8.00;6.40;;;;;;;22.55;76.81;99605.45;212852;1277;140810;-69
2022/08/22 07:40:42;;;;;;;7.70;7.00;;;;;;;22.55;76.70;99599.70;213508;1277;141372;-71
2022/08/22 07:45:53;;;;;;;8.10;7.40;;;;;;;22.59;76.49;99595.98;212906;1277;142113;-69
2022/08/22 07:51:06;;;;;;;14.90;7.10;;;;;;;22.76;76.27;99595.80;213407;1277;142885;-70
2022/08/22 07:56:27;;;;;;;7.00;6.40;;;;;;;22.88;75.96;99592.42;213518;1278;140436;-68
2022/08/22 08:01:32;;;;;;;7.10;6.50;;;;;;;22.94;76.08;99594.23;214230;1277;141568;-70
2022/08/22 08:06:36;;;;;;;8.40;7.60;;;;;;;22.95;76.00;99592.88;213520;1277;140137;-68
2022/08/22 08:11:42;;;;;;;9.00;8.10;;;;;;;22.98;75.48;99593.74;213333;1277;140508;-69
2022/08/22 08:16:52;;;;;;;8.30;7.30;;;;;;;23.08;75.44;99594.16;214781;1279;141781;-68
2022/08/22 08:21:57;;;;;;;7.80;7.20;;;;;;;23.30;75.31;99594.42;212680;1277;140537;-67
2022/08/22 08:32:34;;;;;;;9.50;8.50;;;;;;;23.65;75.14;99602.19;215462;1277;140290;-67
2022/08/22 08:37:44;;;;;;;8.70;7.80;;;;;;;23.83;74.97;99603.16;215305;1277;141951;-68
2022/08/22 08:43:28;;;;;;;10.60;8.60;;;;;;;23.99;74.58;99600.64;215684;1277;141432;-68
2022/08/22 08:49:06;;;;;;;12.00;7.80;;;;;;;23.92;74.15;99606.96;215595;1277;141278;-67
2022/08/22 08:54:33;;;;;;;13.50;7.90;;;;;;;23.95;74.09;99609.58;215054;1277;140688;-68
2022/08/22 08:59:47;;;;;;;;;;;;;;;24.06;73.77;99612.55;213143;1279;140868;-69
2022/08/22 09:05:24;;;;;;;10.40;9.40;;;;;;;24.13;73.63;99611.02;214968;1277;128454;-69
2022/08/22 09:10:33;;;;;;;10.00;9.10;;;;;;;24.44;73.72;99611.75;213493;1277;140124;-68
2022/08/22 09:15:54;;;;;;;9.50;8.60;;;;;;;24.88;73.37;99606.48;214312;1277;140271;-69
2022/08/22 09:21:37;;;;;;;9.00;7.80;;;;;;;25.14;72.66;99602.55;213678;1277;141744;-69
2022/08/22 09:26:40;;;;;;;11.10;8.40;;;;;;;25.10;72.10;99604.84;213247;1277;139919;-76
2022/08/22 09:32:02;;;;;;;9.90;8.70;;;;;;;25.28;72.04;99606.58;213399;1277;141278;-68
2022/08/22 09:37:15;;;;;;;14.30;8.40;;;;;;;25.56;71.54;99603.66;213279;1277;139667;-67
2022/08/22 09:42:31;;;;;;;9.90;8.90;;;;;;;25.73;71.08;99596.77;213308;1277;140344;-68
2022/08/22 09:47:45;;;;;;;;;;;;;;;25.54;70.46;99599.07;213972;1277;140452;-70
2022/08/22 09:53:18;;;;;;;11.00;9.40;;;;;;;25.24;70.48;99599.33;213774;1277;126367;-67
2022/08/22 09:58:48;;;;;;;9.10;8.30;;;;;;;25.09;70.40;99598.88;213780;1278;140496;-67
2022/08/22 10:04:30;;;;;;;9.80;8.90;;;;;;;25.26;70.73;99599.80;213848;1277;151405;-67
2022/08/22 10:09:47;;;;;;;11.20;10.20;;;;;;;25.37;70.33;99602.83;213230;1277;142535;-67
2022/08/22 10:15:29;;;;;;;10.60;9.50;;;;;;;25.29;70.12;99596.79;213488;1277;140738;-68
2022/08/22 10:20:53;;;;;;;10.40;9.30;;;;;;;25.00;70.02;99599.94;212709;1277;140064;-69
2022/08/22 10:26:28;;;;;;;11.50;10.50;;;;;;;24.71;70.08;99606.16;214434;1277;141442;-68
2022/08/22 10:31:56;;;;;;;21.10;10.90;;;;;;;24.68;70.14;99608.23;214321;1277;141577;-69
2022/08/22 10:37:15;;;;;;;12.10;10.10;;;;;;;24.89;70.58;99603.90;215286;1277;142710;-68
2022/08/22 10:42:35;;;;;;;12.70;10.80;;;;;;;25.13;70.48;99600.52;215541;1277;142294;-69
2022/08/22 10:48:01;;;;;;;11.20;10.10;;;;;;;25.33;69.93;99601.55;215591;1277;141117;-69
2022/08/22 10:53:45;;;;;;;12.00;10.80;;;;;;;25.44;69.32;99602.91;215422;1277;142091;-69
2022/08/22 10:59:09;;;;;;;10.70;9.70;;;;;;;25.49;68.98;99592.90;214487;1277;141331;-69
2022/08/22 11:04:25;;;;;;;11.20;10.10;;;;;;;25.66;68.81;99593.42;215405;1277;141582;-69
2022/08/22 11:09:41;;;;;;;11.90;8.80;;;;;;;25.80;68.58;99589.06;214829;1277;142790;-70
2022/08/22 11:15:10;;;;;;;9.00;7.90;;;;;;;25.90;67.79;99583.94;214194;1277;141371;-67
2022/08/22 11:20:24;;;;;;;10.20;8.70;;;;;;;25.85;67.19;99584.02;213528;1278;141088;-67
2022/08/22 11:25:45;;;;;;;8.60;7.70;;;;;;;25.70;66.96;99587.40;213825;1278;141356;-69
2022/08/22 11:31:18;;;;;;;12.00;8.30;;;;;;;25.75;66.80;99590.52;213722;1277;140477;-67
2022/08/22 11:36:57;;;;;;;10.30;8.30;;;;;;;25.73;66.57;99594.20;213755;1277;139879;-69
2022/08/22 11:42:13;;;;;;;11.40;9.20;;;;;;;25.76;66.28;99593.77;213399;1277;140233;-68
2022/08/22 11:47:32;;;;;;;10.20;9.30;;;;;;;25.78;65.87;99589.08;213431;1278;140402;-69
2022/08/22 11:53:12;;;;;;;12.50;9.10;;;;;;;25.81;65.42;99594.16;213138;1277;139959;-67
2022/08/22 11:58:42;;;;;;;10.60;8.10;;;;;;;25.87;65.20;99591.79;213226;1278;140555;-67
2022/08/22 12:04:14;;;;;;;10.10;9.10;;;;;;;25.94;65.26;99596.80;213950;1277;140644;-68
2022/08/22 12:09:40;;;;;;;9.30;7.80;;;;;;;25.97;64.64;99590.03;213933;1277;140699;-67
2022/08/22 12:15:07;;;;;;;10.50;7.90;;;;;;;26.00;64.52;99589.41;213613;1277;150494;-70
2022/08/22 12:20:30;;;;;;;13.40;8.40;;;;;;;26.03;64.61;99591.44;213903;1278;141165;-66
2022/08/22 12:26:04;;;;;;;10.20;8.40;;;;;;;26.01;64.55;99590.83;213670;1277;140220;-68
2022/08/22 12:31:36;;;;;;;10.10;8.50;;;;;;;26.06;64.38;99590.52;214732;1277;139364;-67
2022/08/22 12:36:49;;;;;;;8.10;7.20;;;;;;;26.25;64.35;99587.27;215543;1277;141851;-66
2022/08/22 12:42:30;;;;;;;11.70;7.40;;;;;;;26.58;64.51;99585.71;215333;1277;141638;-65
2022/08/22 12:47:46;;;;;;;12.80;6.90;;;;;;;26.96;63.90;99584.02;215610;1277;140981;-67
2022/08/22 12:52:53;;;;;;;10.00;7.50;;;;;;;27.00;63.10;99585.02;215546;1276;142349;-68
2022/08/22 12:58:22;;;;;;;8.50;7.20;;;;;;;27.05;62.67;99579.39;213590;1277;140782;-67
2022/08/22 13:03:39;;;;;;;13.80;8.10;;;;;;;26.93;62.35;99569.86;213368;1277;139771;-65
2022/08/22 13:08:44;;;;;;;10.60;7.40;;;;;;;26.74;62.38;99565.63;214845;1277;140184;-66
2022/08/22 13:13:54;;;;;;;11.40;7.00;;;;;;;26.56;62.49;99560.41;213098;1277;140809;-66
2022/08/22 13:19:15;;;;;;;9.40;6.30;;;;;;;26.44;62.41;99564.04;213434;1278;139899;-69
2022/08/22 13:24:40;;;;;;;17.20;8.80;;;;;;;26.22;62.16;99557.80;214368;1277;141641;-69
2022/08/22 13:29:58;;;;;;;;;;;;;;;26.16;62.38;99551.38;214233;1277;141041;-68
2022/08/22 13:35:09;;;;;;;8.00;7.20;;;;;;;26.14;62.64;99557.09;215004;1278;126548;-69
2022/08/22 13:40:27;;;;;;;;;;;;;;;26.18;62.17;99557.37;213672;1277;141770;-68
2022/08/22 13:45:35;;;;;;;13.70;7.70;;;;;;;26.24;62.13;99556.85;212061;1279;2110453;-67
2022/08/22 13:51:13;;;;;;;8.10;6.80;;;;;;;26.33;62.46;99555.75;212979;1277;141523;-67
2022/08/22 13:56:30;;;;;;;9.20;7.30;;;;;;;26.02;61.99;99564.98;213248;1277;140658;-67
2022/08/22 14:02:11;;;;;;;13.50;7.00;;;;;;;25.81;62.22;99576.13;213309;1278;143345;-67
2022/08/22 14:07:32;;;;;;;9.80;6.60;;;;;;;25.61;62.46;99577.95;213400;1278;142195;-68
2022/08/22 14:12:47;;;;;;;13.00;6.30;;;;;;;25.51;62.99;99572.30;214462;1277;140452;-67
2022/08/22 14:18:10;;;;;;;16.80;7.20;;;;;;;25.42;62.82;99572.05;213624;1277;140927;-67
2022/08/22 14:23:28;;;;;;;18.00;7.10;;;;;;;25.35;63.03;99568.54;215466;1277;141854;-68
2022/08/22 14:28:42;;;;;;;14.50;7.30;;;;;;;25.39;63.32;99568.93;214690;1277;141376;-67
2022/08/22 14:34:13;;;;;;;16.90;7.40;;;;;;;25.53;63.33;99569.47;215240;1277;141323;-67
2022/08/22 14:39:35;;;;;;;9.20;6.90;;;;;;;25.71;63.35;99573.32;213658;1278;142535;-67
2022/08/22 14:45:14;;;;;;;14.30;6.20;;;;;;;25.92;63.39;99560.98;215363;1279;142794;-68
2022/08/22 14:50:34;;;;;;;13.40;8.20;;;;;;;25.99;63.28;99560.04;214950;1277;141259;-68
2022/08/22 14:55:41;;;;;;;10.70;6.90;;;;;;;26.00;63.15;99564.58;214824;1277;141169;-67
2022/08/22 15:00:48;;;;;;;10.70;6.60;;;;;;;25.79;62.92;99568.23;214459;1278;143105;-67
2022/08/22 15:06:28;;;;;;;10.90;7.50;;;;;;;25.49;62.96;99562.70;214839;1279;141987;-67
2022/08/22 15:11:33;;;;;;;9.40;6.70;;;;;;;25.21;63.30;99567.80;214846;1278;142005;-67
2022/08/22 15:16:51;;;;;;;13.50;7.40;;;;;;;25.02;63.75;99561.98;214600;1278;141015;-69
2022/08/22 15:22:13;;;;;;;9.00;7.70;;;;;;;24.88;64.03;99561.45;212794;1279;141083;-66
2022/08/22 15:27:24;;;;;;;13.40;7.10;;;;;;;24.87;64.31;99559.86;213260;1279;152572;-66
2022/08/22 15:32:36;;;;;;;11.80;7.10;;;;;;;24.77;64.60;99561.69;213841;1279;141485;-66
2022/08/22 15:38:02;;;;;;;10.60;7.20;;;;;;;24.68;64.57;99563.91;212844;1278;142255;-68
2022/08/22 15:43:32;;;;;;;8.30;7.50;;;;;;;24.60;64.83;99557.91;213259;1277;141503;-69
2022/08/22 15:48:40;;;;;;;8.40;7.00;;;;;;;24.53;65.22;99548.39;213224;1278;142930;-68
2022/08/22 15:54:05;;;;;;;10.80;7.90;;;;;;;24.43;65.39;99543.38;213519;1277;141216;-68
2022/08/22 15:59:37;;;;;;;11.40;9.20;;;;;;;24.40;65.73;99547.93;212781;1278;140989;-67
2022/08/22 16:05:10;;;;;;;11.50;8.30;;;;;;;24.45;65.92;99546.41;213481;1279;141672;-67
2022/08/22 16:10:21;;;;;;;13.20;8.20;;;;;;;24.41;66.17;99542.50;214397;1278;141059;-67
2022/08/22 16:15:48;;;;;;;8.60;7.80;;;;;;;24.27;66.23;99543.56;212986;1278;141775;-67
2022/08/22 16:21:09;;;;;;;8.40;7.40;;;;;;;24.12;66.48;99560.94;213154;1278;140443;-67
2022/08/22 16:26:18;;;;;;;14.60;6.60;;;;;;;23.92;66.46;99562.00;213971;1278;139989;-67
2022/08/22 16:31:42;;;;;;;8.20;6.60;;;;;;;23.71;66.28;99563.79;214106;1279;141486;-67
2022/08/22 16:37:13;;;;;;;10.90;6.60;;;;;;;23.59;66.58;99573.96;214772;1278;140137;-67
2022/08/22 16:42:20;;;;;;;8.40;7.00;;;;;;;23.48;66.81;99586.91;214726;1277;139643;-68
2022/08/22 16:47:35;;;;;;;9.20;6.80;;;;;;;23.38;67.10;99596.48;215164;1278;139923;-68
2022/08/22 16:53:01;;;;;;;10.20;6.40;;;;;;;23.30;67.14;99599.41;215242;1278;140608;-69
2022/08/22 16:58:35;;;;;;;8.10;6.00;;;;;;;23.18;67.37;99597.17;215196;1279;140725;-68
2022/08/22 17:04:22;;;;;;;8.60;7.00;;;;;;;23.08;67.68;99600.78;215232;1279;140696;-67
2022/08/22 17:09:59;;;;;;;8.40;7.00;;;;;;;22.99;67.98;99599.38;213949;1279;140122;-67
2022/08/22 17:16:03;;;;;;;8.70;5.70;;;;;;;22.90;68.39;99602.36;213906;1278;141797;-67
2022/08/22 17:21:28;;;;;;;8.00;6.70;;;;;;;22.80;68.68;99612.19;213680;1278;141341;-66
2022/08/22 17:27:05;;;;;;;9.10;6.90;;;;;;;22.74;69.19;99624.69;214601;1278;140037;-68
2022/08/22 17:32:16;;;;;;;11.70;6.60;;;;;;;22.69;69.41;99628.54;213504;1278;142181;-67
2022/08/22 17:37:45;;;;;;;8.90;6.40;;;;;;;22.64;69.63;99622.41;213355;1279;140814;-70
2022/08/22 17:42:58;;;;;;;15.20;7.60;;;;;;;22.59;69.85;99620.88;212816;1278;142197;-68
2022/08/22 17:48:12;;;;;;;12.80;7.80;;;;;;;22.53;70.02;99621.76;213325;1278;141763;-68
2022/08/22 17:53:39;;;;;;;11.20;7.50;;;;;;;22.47;70.27;99624.84;213287;1277;141414;-70
2022/08/22 17:59:00;;;;;;;13.50;7.90;;;;;;;22.41;70.55;99628.48;213501;1278;140543;-69
2022/08/22 18:04:09;;;;;;;10.10;7.20;;;;;;;22.36;70.74;99630.26;212888;1279;141842;-68
2022/08/22 18:09:39;;;;;;;8.90;7.60;;;;;;;22.32;70.97;99636.84;213680;1277;142045;-69
2022/08/22 18:14:56;;;;;;;9.90;7.00;;;;;;;22.29;71.27;99640.90;214037;1279;140419;-67
2022/08/22 18:20:12;;;;;;;7.70;6.80;;;;;;;22.27;71.51;99651.78;212541;1277;141761;-66
2022/08/22 18:25:19;;;;;;;9.10;8.20;;;;;;;22.25;71.81;99657.14;213088;1279;141456;-67
2022/08/22 18:30:29;;;;;;;12.20;7.40;;;;;;;22.22;71.86;99662.11;214125;1278;142610;-67
2022/08/22 18:35:51;;;;;;;17.90;8.30;;;;;;;22.16;71.89;99670.95;212982;1277;141113;-67
2022/08/22 18:41:23;;;;;;;8.20;7.40;;;;;;;22.11;72.32;99687.15;214950;1277;140123;-67
2022/08/22 18:46:37;;;;;;;12.80;8.20;;;;;;;22.05;72.27;99684.82;215256;1277;140471;-67
2022/08/22 18:51:43;;;;;;;14.10;7.50;;;;;;;22.01;72.47;99677.08;215401;1277;141864;-68
2022/08/22 18:56:50;;;;;;;8.30;6.60;;;;;;;22.00;72.63;99670.23;215242;1278;141171;-68
2022/08/22 19:02:16;;;;;;;7.40;6.30;;;;;;;22.01;72.62;99670.13;214564;1278;141681;-66
2022/08/22 19:07:49;;;;;;;8.00;7.10;;;;;;;22.02;72.76;99677.46;215015;1277;140411;-67
2022/08/22 19:13:17;;;;;;;9.10;7.00;;;;;;;21.98;72.99;99676.48;214262;1277;140509;-67
2022/08/22 19:18:41;;;;;;;9.40;6.80;;;;;;;21.94;72.97;99675.34;213838;1279;139962;-66
2022/08/22 19:23:49;;;;;;;10.00;6.50;;;;;;;21.90;73.08;99669.36;213009;1277;141361;-68
2022/08/22 19:28:58;;;;;;;8.90;7.40;;;;;;;21.83;73.13;99655.63;213562;1277;140466;-67
2022/08/22 19:34:24;;;;;;;12.80;7.50;;;;;;;21.79;73.41;99660.08;213772;1278;140890;-66
2022/08/22 19:39:41;;;;;;;8.70;7.80;;;;;;;21.76;73.58;99662.54;213042;1277;141421;-67
2022/08/22 19:44:49;;;;;;;14.90;7.20;;;;;;;21.72;73.79;99662.58;212879;1277;140208;-67
2022/08/22 19:49:59;;;;;;;7.20;6.60;;;;;;;21.65;73.75;99660.06;213673;1277;141527;-67
2022/08/22 19:55:13;;;;;;;14.20;7.50;;;;;;;21.58;73.97;99662.66;213566;1277;140606;-68
2022/08/22 20:00:58;;;;;;;9.30;7.50;;;;;;;21.55;74.23;99668.16;213299;1277;140500;-67
2022/08/22 20:06:52;;;;;;;10.00;7.50;;;;;;;21.52;74.47;99674.86;212569;1279;140119;-68
2022/08/22 20:12:13;;;;;;;10.40;7.30;;;;;;;21.46;74.55;99667.13;212875;1277;140600;-66
2022/08/22 20:17:24;;;;;;;9.00;7.00;;;;;;;21.39;74.58;99666.11;214056;1277;152662;-67
2022/08/22 20:22:40;;;;;;;7.40;6.00;;;;;;;21.36;74.82;99665.99;212924;1278;141632;-68
2022/08/22 20:27:50;;;;;;;10.60;6.50;;;;;;;21.34;74.91;99655.35;214006;1277;142765;-69
2022/08/22 20:33:24;;;;;;;11.70;6.70;;;;;;;21.33;75.13;99655.91;213590;1278;141462;-66
2022/08/22 20:38:41;;;;;;;8.90;6.20;;;;;;;21.31;75.23;99642.34;213648;1277;141298;-67
2022/08/22 20:44:11;;;;;;;8.80;7.30;;;;;;;21.24;75.29;99634.23;214705;1277;139826;-67
2022/08/22 20:49:22;;;;;;;16.40;7.20;;;;;;;21.19;75.48;99632.02;213999;1277;142616;-68
2022/08/22 20:54:30;;;;;;;13.70;7.00;;;;;;;21.16;75.61;99630.84;215649;1277;141085;-68
2022/08/22 20:59:40;;;;;;;9.70;6.20;;;;;;;21.14;75.73;99628.81;215432;1277;141674;-69
2022/08/22 21:05:07;;;;;;;8.30;6.50;;;;;;;21.14;75.84;99627.62;214817;1277;140490;-67
2022/08/22 21:16:14;;;;;;;13.20;6.30;;;;;;;21.08;76.28;99621.12;214752;1277;127624;-70
2022/08/22 21:21:19;;;;;;;8.90;5.60;;;;;;;21.05;76.07;99611.06;214794;1279;142652;-67
2022/08/22 21:26:37;;;;;;;6.70;6.00;;;;;;;20.99;76.19;99607.02;213961;1277;140307;-68
2022/08/22 21:31:46;;;;;;;8.40;5.80;;;;;;;20.98;76.36;99614.79;212941;1280;141218;-67
2022/08/22 21:36:53;;;;;;;6.30;5.10;;;;;;;20.96;76.41;99627.30;213559;1277;141361;-67
2022/08/22 21:41:59;;;;;;;8.40;6.00;;;;;;;20.90;76.42;99623.73;214225;1277;140761;-68
2022/08/22 21:47:18;;;;;;;;;;;;;;;20.85;76.51;99623.42;213382;1277;140569;-68
2022/08/22 21:52:36;;;;;;;7.50;6.00;;;;;;;20.76;76.84;99618.86;213235;1279;126290;-67
2022/08/22 21:57:39;;;;;;;;;;;;;;;20.66;76.89;99620.65;213175;1277;140984;-68
2022/08/22 22:02:42;;;;;;;8.70;5.70;;;;;;;20.58;77.06;99624.61;214844;1277;126882;-68
2022/08/22 22:07:46;;;;;;;8.70;5.70;;;;;;;20.57;77.19;99627.30;214261;1277;140721;-67
2022/08/22 22:12:52;;;;;;;10.60;5.00;;;;;;;20.56;77.24;99629.69;214241;1277;142188;-67
2022/08/22 22:17:55;;;;;;;5.30;4.70;;;;;;;20.53;77.17;99615.89;213026;1277;142040;-66
2022/08/22 22:23:00;;;;;;;6.40;4.90;;;;;;;20.43;77.28;99605.33;213181;1277;234084;-69
2022/08/22 22:28:08;;;;;;;10.20;5.70;;;;;;;20.43;77.68;99601.50;214316;1277;142413;-68
2022/08/22 22:33:12;;;;;;;9.10;5.70;;;;;;;20.42;77.77;99599.16;213947;1277;142015;-65
2022/08/22 22:38:16;;;;;;;18.30;5.60;;;;;;;20.41;77.92;99589.51;214434;1277;140055;-70
2022/08/22 22:43:25;;;;;;;6.30;5.70;;;;;;;20.40;77.83;99590.02;215464;1277;141314;-68
2022/08/22 22:48:29;;;;;;;12.20;5.70;;;;;;;20.37;77.93;99584.70;215574;1278;141082;-70
2022/08/22 22:53:34;;;;;;;6.30;5.50;;;;;;;20.39;78.19;99578.08;215011;1277;142574;-69
2022/08/22 22:58:43;;;;;;;11.10;5.90;;;;;;;20.41;78.16;99573.33;215488;1277;142536;-68
2022/08/22 23:03:47;;;;;;;5.00;4.50;;;;;;;20.40;78.12;99581.89;215368;1277;141153;-69
2022/08/22 23:08:52;;;;;;;7.30;5.00;;;;;;;20.38;78.17;99575.05;215083;1277;142156;-68
2022/08/22 23:13:55;;;;;;;9.10;5.20;;;;;;;20.32;78.06;99562.65;214870;1277;141947;-68
2022/08/22 23:18:59;;;;;;;10.60;5.20;;;;;;;20.25;78.21;99560.02;214051;1277;141439;-67
2022/08/22 23:24:04;;;;;;;10.40;5.40;;;;;;;20.20;78.23;99550.32;214441;1277;141352;-68
2022/08/22 23:29:08;;;;;;;5.80;4.70;;;;;;;20.16;78.48;99560.00;213702;1277;142640;-67
2022/08/22 23:34:14;;;;;;;11.40;5.20;;;;;;;20.15;78.65;99567.52;213209;1277;141844;-67
2022/08/22 23:39:18;;;;;;;;;;;;;;;20.11;78.60;99571.85;212963;1277;141437;-69
2022/08/22 23:44:25;;;;;;;5.60;5.20;;;;;;;20.08;78.91;99568.77;213950;1277;127934;-69
2022/08/22 23:49:29;;;;;;;7.20;5.50;;;;;;;20.06;78.98;99568.92;213729;1277;141922;-68
2022/08/22 23:54:33;;;;;;;7.60;5.00;;;;;;;20.06;79.20;99565.94;213496;1277;141571;-69
2022/08/22 23:59:38;;;;;;;6.50;5.80;;;;;;;20.07;79.27;99561.92;213122;1277;223567;-68
